Time;durP1;ratioP1;P1;durP2;ratioP2;P2;SDS_P1;SDS_P2;PMS_P1;PMS_P2;Temp;Humidity;BMP_temperature;BMP_pressure;BME280_temperature;BME280_humidity;BME280_pressure;Samples;Min_cycle;Max_cycle;Signal;HPM_P1;HPM_P2
2021/07/12 00:01:56;;;;;;;4.27;3.70;;;16.20;99.90;;;;;;5066291;28;20604;-59
2021/07/12 00:04:22;;;;;;;4.50;4.10;;;16.30;99.90;;;;;;5061499;28;20667;-58
2021/07/12 00:06:47;;;;;;;4.20;3.90;;;16.00;99.90;;;;;;5061398;28;20180;-57
2021/07/12 00:09:13;;;;;;;3.90;3.60;;;16.30;99.90;;;;;;5061036;28;20744;-58
2021/07/12 00:11:38;;;;;;;3.77;3.40;;;16.20;99.90;;;;;;5053778;28;20181;-58
2021/07/12 00:14:04;;;;;;;4.50;4.10;;;16.40;99.90;;;;;;5060122;28;20174;-58
2021/07/12 00:16:30;;;;;;;4.07;3.77;;;16.30;99.90;;;;;;5066011;28;20200;-58
2021/07/12 00:18:55;;;;;;;4.53;4.13;;;15.80;99.90;;;;;;5061510;28;20575;-57
2021/07/12 00:21:21;;;;;;;4.03;3.73;;;16.00;99.90;;;;;;5057958;28;20189;-58
2021/07/12 00:23:49;;;;;;;3.87;3.57;;;15.80;99.90;;;;;;5062770;28;20202;-59
2021/07/12 00:26:15;;;;;;;4.40;3.97;;;16.00;99.90;;;;;;5059035;28;20173;-58
2021/07/12 00:28:40;;;;;;;4.00;3.70;;;16.00;99.90;;;;;;5066710;28;20208;-58
2021/07/12 00:31:06;;;;;;;5.63;3.67;;;15.80;99.90;;;;;;5060876;28;20188;-57
2021/07/12 00:33:32;;;;;;;4.33;4.00;;;16.00;99.90;;;;;;5050490;28;20181;-58
2021/07/12 00:35:59;;;;;;;4.40;4.00;;;15.70;99.90;;;;;;5063089;28;20194;-58
2021/07/12 00:38:24;;;;;;;4.20;3.80;;;15.80;99.90;;;;;;5061531;28;20181;-59
2021/07/12 00:40:50;;;;;;;4.47;3.77;;;15.90;99.90;;;;;;5054865;28;20886;-59
2021/07/12 00:43:15;;;;;;;4.77;4.17;;;15.80;99.90;;;;;;5060097;28;20212;-58
2021/07/12 00:45:41;;;;;;;4.30;3.90;;;15.80;99.90;;;;;;5060089;28;20246;-58
2021/07/12 00:48:07;;;;;;;4.40;4.00;;;15.90;99.90;;;;;;5065556;28;20259;-58
2021/07/12 00:50:37;;;;;;;4.28;3.95;;;15.90;99.90;;;;;;5059527;28;20474;-58
2021/07/12 00:53:04;;;;;;;3.90;3.60;;;15.60;99.90;;;;;;5066652;28;20212;-58
2021/07/12 00:55:31;;;;;;;4.03;3.72;;;15.60;99.90;;;;;;5058500;28;20185;-58
2021/07/12 00:57:57;;;;;;;5.30;3.90;;;15.50;99.90;;;;;;5065778;28;20779;-58
2021/07/12 01:00:24;;;;;;;4.60;4.20;;;15.70;99.90;;;;;;5064985;28;20288;-59
2021/07/12 01:02:51;;;;;;;4.45;4.05;;;15.70;99.90;;;;;;5059592;28;20207;-58
2021/07/12 01:05:22;;;;;;;4.10;3.80;;;15.50;99.90;;;;;;5059190;28;20169;-58
2021/07/12 01:07:47;;;;;;;3.90;3.50;;;15.60;99.90;;;;;;5057133;28;20182;-58
2021/07/12 01:10:17;;;;;;;3.53;3.30;;;15.60;99.90;;;;;;5054833;28;20198;-59
2021/07/12 01:12:51;;;;;;;3.95;3.65;;;15.60;99.90;;;;;;5063557;28;20536;-59
2021/07/12 01:15:19;;;;;;;4.10;3.75;;;15.80;99.90;;;;;;5068975;28;20193;-58
2021/07/12 01:18:20;;;;;;;4.13;3.72;;;15.70;99.90;;;;;;5069138;28;20596;-58
2021/07/12 01:21:16;;;;;;;4.60;4.20;;;15.70;99.90;;;;;;5075738;28;20204;-58
2021/07/12 01:27:31;;;;;;;4.55;4.15;;;15.50;99.90;;;;;;5056735;28;20242;-58
2021/07/12 01:30:28;;;;;;;3.90;3.60;;;15.60;99.90;;;;;;5064854;28;20263;-58
2021/07/12 01:33:25;;;;;;;5.70;4.25;;;15.50;99.90;;;;;;5064900;28;20643;-59
2021/07/12 01:36:02;;;;;;;4.53;4.13;;;15.40;99.90;;;;;;5062509;28;20628;-58
2021/07/12 01:38:44;;;;;;;4.22;3.80;;;15.50;99.90;;;;;;5062870;28;20215;-59
2021/07/12 01:41:26;;;;;;;4.13;3.83;;;15.30;99.90;;;;;;5058879;28;20192;-58
2021/07/12 01:44:00;;;;;;;4.15;3.60;;;15.10;99.90;;;;;;5062687;28;20292;-59
2021/07/12 01:46:31;;;;;;;3.72;3.42;;;15.30;99.90;;;;;;5067638;28;20201;-59
2021/07/12 01:49:08;;;;;;;4.55;3.50;;;15.60;99.90;;;;;;5063146;28;20303;-59
2021/07/12 01:52:00;;;;;;;4.40;4.00;;;15.40;99.90;;;;;;5063173;28;20180;-59
2021/07/12 01:54:30;;;;;;;4.07;3.78;;;15.60;99.90;;;;;;5066084;28;20173;-59
2021/07/12 01:57:03;;;;;;;5.28;4.57;;;15.40;99.90;;;;;;5066875;28;20698;-59
2021/07/12 01:59:47;;;;;;;5.25;3.95;;;15.50;99.90;;;;;;5064700;28;20212;-59
2021/07/12 02:02:14;;;;;;;5.75;4.00;;;15.40;99.90;;;;;;5061263;28;20220;-59
2021/07/12 02:04:41;;;;;;;5.32;3.95;;;15.20;99.90;;;;;;5061265;28;20276;-59
2021/07/12 02:07:11;;;;;;;4.18;3.88;;;15.30;99.90;;;;;;5061224;28;20188;-59
2021/07/12 02:09:38;;;;;;;4.15;3.75;;;15.30;99.90;;;;;;5058130;28;20624;-58
2021/07/12 02:12:05;;;;;;;4.85;3.65;;;15.60;99.90;;;;;;5062794;28;20184;-58
2021/07/12 02:14:33;;;;;;;5.35;3.70;;;15.60;99.90;;;;;;5065316;28;20242;-58
2021/07/12 02:17:02;;;;;;;4.38;3.97;;;15.40;99.90;;;;;;5065685;28;20192;-58
2021/07/12 02:19:31;;;;;;;4.90;3.92;;;15.30;99.90;;;;;;5060256;28;20614;-57
2021/07/12 02:21:58;;;;;;;4.78;3.50;;;15.20;99.90;;;;;;5063110;28;20216;-58
2021/07/12 02:24:25;;;;;;;4.97;3.83;;;15.30;99.90;;;;;;5057546;28;20639;-58
2021/07/12 02:26:53;;;;;;;3.90;3.60;;;15.30;99.90;;;;;;5067888;28;20188;-57
2021/07/12 02:29:22;;;;;;;4.60;4.20;;;15.40;99.90;;;;;;5064866;28;20250;-57
2021/07/12 02:31:49;;;;;;;4.45;4.15;;;15.40;99.90;;;;;;5055874;28;20177;-58
2021/07/12 02:34:17;;;;;;;4.20;3.80;;;15.40;99.90;;;;;;5056758;28;20200;-57
2021/07/12 02:36:45;;;;;;;4.38;4.00;;;15.20;99.90;;;;;;5060198;28;20352;-57
2021/07/12 02:39:12;;;;;;;4.35;3.95;;;15.30;99.90;;;;;;5061666;28;20223;-57
2021/07/12 02:42:25;;;;;;;4.28;3.95;;;15.40;99.90;;;;;;5057283;28;20649;-58
2021/07/12 02:44:52;;;;;;;4.93;4.43;;;15.00;99.90;;;;;;5056587;28;20627;-58
2021/07/12 02:47:18;;;;;;;3.90;3.65;;;15.40;99.90;;;;;;5068507;28;20259;-57
2021/07/12 02:49:45;;;;;;;4.87;4.47;;;15.20;99.90;;;;;;5060916;28;20300;-59
2021/07/12 02:52:34;;;;;;;4.68;3.65;;;15.30;99.90;;;;;;5066742;28;20191;-58
2021/07/12 02:55:00;;;;;;;4.72;4.32;;;14.70;99.90;;;;;;5059056;28;20971;-58
2021/07/12 02:57:27;;;;;;;4.28;3.88;;;15.10;99.90;;;;;;5055087;28;20189;-59
2021/07/12 02:59:53;;;;;;;6.38;3.80;;;15.10;99.90;;;;;;5061780;28;20296;-59
2021/07/12 03:02:19;;;;;;;4.13;3.72;;;15.10;99.90;;;;;;5061224;28;20197;-58
2021/07/12 03:04:45;;;;;;;5.03;4.13;;;15.10;99.90;;;;;;5062051;28;20177;-59
2021/07/12 03:07:33;;;;;;;5.37;3.90;;;15.00;99.90;;;;;;5067583;28;20212;-59
2021/07/12 03:10:07;;;;;;;3.70;3.40;;;15.00;99.90;;;;;;5044045;28;20837;-59
2021/07/12 03:12:52;;;;;;;4.25;3.85;;;15.20;99.90;;;;;;5058084;28;20212;-59
2021/07/12 03:15:34;;;;;;;4.32;4.00;;;15.30;99.90;;;;;;5059971;28;20199;-59
2021/07/12 03:18:04;;;;;;;3.97;3.67;;;15.20;99.90;;;;;;5061653;28;20188;-59
2021/07/12 03:20:31;;;;;;;4.93;4.43;;;15.10;99.90;;;;;;5055950;28;20203;-59
2021/07/12 03:22:59;;;;;;;5.18;4.68;;;15.10;99.90;;;;;;5066193;28;20201;-59
2021/07/12 03:25:34;;;;;;;4.43;4.03;;;14.90;99.90;;;;;;5058742;28;20190;-58
2021/07/12 03:28:03;;;;;;;4.93;3.70;;;14.90;99.90;;;;;;5063130;28;20710;-58
2021/07/12 03:30:31;;;;;;;4.65;4.25;;;15.00;99.90;;;;;;5058278;28;20581;-59
2021/07/12 03:32:57;;;;;;;4.40;4.00;;;14.90;99.90;;;;;;5054050;28;20227;-58
2021/07/12 03:35:36;;;;;;;4.68;4.28;;;15.20;99.90;;;;;;5063953;28;20197;-58
2021/07/12 03:38:02;;;;;;;4.63;4.22;;;15.00;99.90;;;;;;5060021;28;20641;-59
2021/07/12 03:40:28;;;;;;;4.55;3.95;;;15.10;99.90;;;;;;5057517;28;20201;-58
2021/07/12 03:42:54;;;;;;;4.65;4.25;;;14.90;99.90;;;;;;5058839;28;20236;-59
2021/07/12 03:45:20;;;;;;;5.57;4.43;;;14.80;99.90;;;;;;5059202;28;20178;-59
2021/07/12 03:47:47;;;;;;;4.70;4.17;;;15.00;99.90;;;;;;5062980;28;20177;-59
2021/07/12 03:50:15;;;;;;;5.45;3.80;;;15.00;99.90;;;;;;5057069;28;20204;-59
2021/07/12 03:52:46;;;;;;;6.05;4.70;;;15.00;99.90;;;;;;5082011;28;20619;-59
2021/07/12 03:55:13;;;;;;;4.57;4.18;;;15.10;99.90;;;;;;5064111;28;20185;-59
2021/07/12 03:57:40;;;;;;;4.43;4.03;;;14.90;99.90;;;;;;5062248;28;20276;-59
2021/07/12 04:00:09;;;;;;;4.25;3.95;;;15.10;99.90;;;;;;5063113;28;20227;-58
2021/07/12 04:02:35;;;;;;;6.05;4.05;;;14.80;99.90;;;;;;5057749;28;20193;-60
2021/07/12 04:05:00;;;;;;;4.77;4.47;;;15.30;99.90;;;;;;5061635;28;20182;-58
2021/07/12 04:07:26;;;;;;;4.50;4.10;;;14.80;99.90;;;;;;5065101;28;20223;-59
2021/07/12 04:09:51;;;;;;;4.73;4.33;;;15.20;99.90;;;;;;5058277;28;20205;-59
2021/07/12 04:12:23;;;;;;;5.80;4.60;;;15.00;99.90;;;;;;5055587;28;20650;-58
2021/07/12 04:14:54;;;;;;;6.40;5.80;;;14.90;99.90;;;;;;5056420;28;20578;-58
2021/07/12 04:17:20;;;;;;;4.55;4.15;;;15.10;99.90;;;;;;5053210;28;20477;-58
2021/07/12 04:19:46;;;;;;;4.45;4.05;;;15.30;99.90;;;;;;5055123;28;20211;-57
2021/07/12 04:22:11;;;;;;;4.40;4.00;;;15.40;99.90;;;;;;5050514;28;20209;-57
2021/07/12 04:24:37;;;;;;;5.70;4.67;;;15.00;99.90;;;;;;5053523;28;20549;-57
2021/07/12 04:27:03;;;;;;;4.30;3.90;;;15.20;99.90;;;;;;5058372;28;20177;-57
2021/07/12 04:29:29;;;;;;;6.00;4.00;;;15.10;99.90;;;;;;5053539;28;20283;-57
2021/07/12 04:31:56;;;;;;;4.03;3.70;;;15.30;99.90;;;;;;5056311;28;20579;-57
2021/07/12 04:34:22;;;;;;;4.68;4.28;;;15.30;99.90;;;;;;5060170;28;20224;-57
2021/07/12 04:36:48;;;;;;;6.18;4.65;;;15.40;99.90;;;;;;5058103;28;20177;-57
2021/07/12 04:39:14;;;;;;;4.73;4.10;;;15.60;99.90;;;;;;5055542;28;20680;-58
2021/07/12 04:41:39;;;;;;;4.33;3.93;;;15.30;99.90;;;;;;5055460;28;20444;-57
2021/07/12 04:44:05;;;;;;;4.20;3.90;;;15.50;99.90;;;;;;5058802;28;20597;-58
2021/07/12 04:46:31;;;;;;;6.00;4.27;;;15.70;99.90;;;;;;5061925;28;20276;-57
2021/07/12 04:48:56;;;;;;;15.23;4.40;;;15.70;99.90;;;;;;5064098;28;20212;-57
2021/07/12 04:51:22;;;;;;;4.40;4.00;;;15.90;99.90;;;;;;5060799;28;20540;-57
2021/07/12 04:53:48;;;;;;;5.03;4.63;;;15.80;99.90;;;;;;5056511;28;20182;-57
2021/07/12 04:56:13;;;;;;;8.90;4.90;;;16.10;99.90;;;;;;5060348;28;20185;-58
2021/07/12 04:58:45;;;;;;;5.60;4.00;;;15.80;99.90;;;;;;5058477;28;20291;-57
2021/07/12 05:01:11;;;;;;;5.57;4.43;;;16.00;99.90;;;;;;5054860;28;20539;-57
2021/07/12 05:03:36;;;;;;;4.23;3.77;;;15.90;99.90;;;;;;5052193;28;20208;-57
2021/07/12 05:06:03;;;;;;;7.53;4.30;;;15.60;99.90;;;;;;5057327;28;20513;-57
2021/07/12 05:08:28;;;;;;;4.90;3.95;;;16.10;99.90;;;;;;5052760;28;20964;-57
2021/07/12 05:10:55;;;;;;;4.17;3.87;;;16.20;99.90;;;;;;5059180;28;20266;-61
2021/07/12 05:13:21;;;;;;;4.65;4.25;;;16.50;99.90;;;;;;5058409;28;20207;-61
2021/07/12 05:15:47;;;;;;;4.30;3.97;;;16.40;99.90;;;;;;5058565;28;20226;-62
2021/07/12 05:18:12;;;;;;;4.65;4.15;;;16.60;99.90;;;;;;5052606;28;20227;-63
2021/07/12 05:20:38;;;;;;;4.00;3.70;;;16.50;99.90;;;;;;5054085;28;20632;-64
2021/07/12 05:23:04;;;;;;;4.33;3.97;;;16.60;99.90;;;;;;5056132;28;20200;-57
2021/07/12 05:25:29;;;;;;;4.30;4.00;;;16.80;99.90;;;;;;5059663;28;20185;-57
2021/07/12 05:27:55;;;;;;;5.30;4.00;;;16.90;99.90;;;;;;5063583;28;20174;-57
2021/07/12 05:30:21;;;;;;;6.90;4.53;;;17.00;99.90;;;;;;5060840;28;20197;-60
2021/07/12 05:32:47;;;;;;;4.80;4.30;;;17.20;99.90;;;;;;5058018;28;20681;-60
2021/07/12 05:35:13;;;;;;;3.40;3.10;;;17.20;99.90;;;;;;5054992;28;20193;-58
2021/07/12 05:37:39;;;;;;;4.00;3.70;;;17.40;99.90;;;;;;5055919;28;20221;-59
2021/07/12 05:40:06;;;;;;;3.90;3.60;;;17.30;99.90;;;;;;5054208;28;20682;-61
2021/07/12 05:42:32;;;;;;;3.75;3.45;;;17.30;99.90;;;;;;5041193;28;20467;-60
2021/07/12 05:44:57;;;;;;;8.70;3.60;;;17.50;99.90;;;;;;5056242;28;20582;-60
2021/07/12 05:47:23;;;;;;;4.30;4.00;;;17.60;99.90;;;;;;5060795;28;20240;-60
2021/07/12 05:49:49;;;;;;;4.53;3.53;;;17.70;99.90;;;;;;5055852;28;20839;-67
2021/07/12 05:52:15;;;;;;;4.30;3.67;;;17.80;99.90;;;;;;5055707;28;20306;-65
2021/07/12 05:54:40;;;;;;;3.20;2.83;;;17.90;99.90;;;;;;5064399;28;20471;-65
2021/07/12 05:57:06;;;;;;;4.37;3.50;;;18.00;99.90;;;;;;5054899;28;20522;-65
2021/07/12 05:59:32;;;;;;;4.27;3.97;;;18.10;99.90;;;;;;5060881;28;20232;-64
2021/07/12 06:01:58;;;;;;;4.20;3.90;;;18.30;99.90;;;;;;5055655;28;20209;-63
2021/07/12 06:04:23;;;;;;;4.53;4.13;;;18.30;99.90;;;;;;5065415;28;20483;-62
2021/07/12 06:06:49;;;;;;;3.40;3.10;;;18.40;99.90;;;;;;5059214;28;20614;-61
2021/07/12 06:09:14;;;;;;;4.07;3.70;;;18.50;99.90;;;;;;5059899;28;20201;-63
2021/07/12 06:11:40;;;;;;;5.67;4.10;;;18.60;99.90;;;;;;5064995;28;20185;-62
2021/07/12 06:14:06;;;;;;;3.40;3.10;;;18.70;99.90;;;;;;5058351;28;20545;-66
2021/07/12 06:16:31;;;;;;;4.07;3.60;;;18.80;99.90;;;;;;5062870;28;20689;-65
2021/07/12 06:18:57;;;;;;;3.40;3.00;;;18.90;99.90;;;;;;5052262;28;20255;-63
2021/07/12 06:21:24;;;;;;;5.20;4.03;;;18.90;99.90;;;;;;5060511;28;20181;-62
2021/07/12 06:23:50;;;;;;;4.07;3.70;;;19.00;99.90;;;;;;5067655;28;20254;-65
2021/07/12 06:26:15;;;;;;;3.90;3.17;;;19.20;99.90;;;;;;5065439;28;20185;-62
2021/07/12 06:28:41;;;;;;;3.70;3.40;;;19.40;99.90;;;;;;5062775;28;20224;-62
2021/07/12 06:31:07;;;;;;;3.20;2.07;;;19.40;99.90;;;;;;5060481;28;20165;-56
2021/07/12 06:33:32;;;;;;;2.47;2.27;;;19.70;99.90;;;;;;5058816;28;20859;-56
2021/07/12 06:35:58;;;;;;;3.90;2.27;;;20.10;99.90;;;;;;5067856;28;20235;-56
2021/07/12 06:38:24;;;;;;;2.57;1.93;;;20.30;99.90;;;;;;5060499;28;20188;-57
2021/07/12 06:40:49;;;;;;;2.30;2.10;;;20.60;99.90;;;;;;5058742;28;20271;-56
2021/07/12 06:43:15;;;;;;;2.13;1.90;;;20.80;99.90;;;;;;5060831;28;20219;-57
2021/07/12 06:45:41;;;;;;;1.90;1.80;;;21.00;99.90;;;;;;5051217;28;20177;-58
2021/07/12 06:48:07;;;;;;;2.60;1.77;;;21.20;99.90;;;;;;5058617;28;20223;-58
2021/07/12 06:50:33;;;;;;;2.30;2.15;;;21.50;99.90;;;;;;5060339;28;20211;-58
2021/07/12 06:52:59;;;;;;;2.60;2.00;;;22.00;99.90;;;;;;5053060;28;20196;-58
2021/07/12 06:55:24;;;;;;;2.67;2.10;;;22.30;99.90;;;;;;5065831;28;20443;-56
2021/07/12 06:57:50;;;;;;;2.37;2.10;;;22.70;98.90;;;;;;5056430;28;20435;-57
2021/07/12 07:00:16;;;;;;;1.80;1.70;;;22.90;98.40;;;;;;5057454;28;20282;-56
2021/07/12 07:02:42;;;;;;;4.00;2.07;;;23.00;97.70;;;;;;5055798;28;20601;-58
2021/07/12 07:05:08;;;;;;;4.87;2.33;;;23.40;97.60;;;;;;5057887;28;20443;-58
2021/07/12 07:07:35;;;;;;;1.83;1.73;;;23.60;96.90;;;;;;5061947;28;20184;-57
2021/07/12 07:10:06;;;;;;;2.33;2.00;;;23.90;95.50;;;;;;5055990;28;20466;-58
2021/07/12 07:12:32;;;;;;;2.30;2.17;;;24.20;95.10;;;;;;5052942;28;20440;-57
2021/07/12 07:14:57;;;;;;;1.83;1.73;;;24.60;94.60;;;;;;5065361;28;20450;-57
2021/07/12 07:17:24;;;;;;;1.97;1.87;;;24.50;94.40;;;;;;5063599;28;20177;-57
2021/07/12 07:19:50;;;;;;;1.97;1.87;;;24.70;94.00;;;;;;5061257;28;20217;-56
2021/07/12 07:22:16;;;;;;;1.93;1.73;;;25.20;93.10;;;;;;5055287;28;20455;-56
2021/07/12 07:24:42;;;;;;;2.10;1.90;;;25.50;92.10;;;;;;5063448;28;20807;-57
2021/07/12 07:27:08;;;;;;;2.07;1.97;;;25.90;91.90;;;;;;5064355;28;20711;-57
2021/07/12 07:29:33;;;;;;;15.73;2.20;;;26.30;91.10;;;;;;5062179;28;20539;-57
2021/07/12 07:31:59;;;;;;;2.10;2.00;;;26.60;90.20;;;;;;5051285;28;20253;-57
2021/07/12 07:34:25;;;;;;;2.00;1.90;;;26.80;89.30;;;;;;5058612;28;20250;-57
2021/07/12 07:36:50;;;;;;;1.80;1.70;;;27.40;86.60;;;;;;5062294;28;20181;-58
2021/07/12 07:39:16;;;;;;;2.70;2.17;;;28.10;85.10;;;;;;5065333;28;20216;-58
2021/07/12 07:41:42;;;;;;;2.50;1.80;;;29.40;81.40;;;;;;5051487;28;20472;-57
2021/07/12 07:44:07;;;;;;;2.47;2.03;;;30.20;76.90;;;;;;5057185;28;20190;-56
2021/07/12 07:46:34;;;;;;;2.10;2.00;;;31.10;72.40;;;;;;5057845;28;20180;-57
2021/07/12 07:49:02;;;;;;;2.13;1.97;;;32.10;68.40;;;;;;5052385;28;20197;-57
2021/07/12 07:51:29;;;;;;;5.80;1.87;;;32.70;65.00;;;;;;5065579;28;21058;-56
2021/07/12 07:53:54;;;;;;;2.27;2.17;;;32.90;62.30;;;;;;5060126;28;20835;-57
2021/07/12 07:56:20;;;;;;;1.70;1.60;;;33.60;59.30;;;;;;5055480;28;20428;-57
2021/07/12 07:58:49;;;;;;;2.23;2.03;;;33.90;59.30;;;;;;5058640;28;20626;-57
2021/07/12 08:01:14;;;;;;;2.20;2.00;;;34.00;57.70;;;;;;5058422;28;20247;-57
2021/07/12 08:03:40;;;;;;;2.17;2.00;;;34.90;56.30;;;;;;5061798;28;20993;-57
2021/07/12 08:06:06;;;;;;;2.30;2.13;;;35.20;53.60;;;;;;5056915;28;20185;-57
2021/07/12 08:08:31;;;;;;;1.90;1.80;;;34.90;54.30;;;;;;5058861;28;20195;-58
2021/07/12 08:10:57;;;;;;;2.30;2.20;;;34.80;53.60;;;;;;5057095;28;20173;-57
2021/07/12 08:13:24;;;;;;;2.37;2.00;;;35.10;53.00;;;;;;5054659;28;20663;-56
2021/07/12 08:15:50;;;;;;;4.83;3.13;;;35.20;51.80;;;;;;5062285;28;20316;-57
2021/07/12 08:18:16;;;;;;;1.80;1.70;;;34.40;53.70;;;;;;5062728;28;20869;-56
2021/07/12 08:20:45;;;;;;;1.50;1.40;;;35.10;52.40;;;;;;5067258;28;20209;-57
2021/07/12 08:23:10;;;;;;;1.63;1.53;;;35.20;52.00;;;;;;5064083;28;20200;-56
2021/07/12 08:25:36;;;;;;;1.87;1.77;;;35.40;51.50;;;;;;5059043;28;20436;-57
2021/07/12 08:28:03;;;;;;;2.13;1.93;;;35.20;51.40;;;;;;5054687;28;20223;-57
2021/07/12 08:30:29;;;;;;;1.93;1.83;;;35.00;51.60;;;;;;5059476;28;20704;-57
2021/07/12 08:32:55;;;;;;;3.23;1.80;;;34.10;52.00;;;;;;5060205;28;20456;-57
2021/07/12 08:35:20;;;;;;;2.00;1.90;;;34.60;53.00;;;;;;5061181;28;20480;-56
2021/07/12 08:37:52;;;;;;;1.67;1.50;;;35.40;51.00;;;;;;5052903;28;20185;-57
2021/07/12 08:40:21;;;;;;;1.80;1.70;;;36.10;50.60;;;;;;5056066;28;20354;-56
2021/07/12 08:42:50;;;;;;;2.00;1.90;;;36.50;49.90;;;;;;5054969;28;20459;-58
2021/07/12 08:45:16;;;;;;;1.97;1.87;;;36.70;49.30;;;;;;5054791;28;20436;-57
2021/07/12 08:47:42;;;;;;;2.17;1.97;;;35.50;50.60;;;;;;5056393;28;20434;-56
2021/07/12 08:50:08;;;;;;;1.73;1.63;;;35.30;51.40;;;;;;5058866;28;20208;-56
2021/07/12 08:52:34;;;;;;;2.43;2.23;;;35.30;51.50;;;;;;5057838;28;20189;-57
2021/07/12 08:55:00;;;;;;;3.00;1.60;;;35.90;50.30;;;;;;5060663;28;20511;-55
2021/07/12 08:57:26;;;;;;;2.10;2.00;;;35.80;49.90;;;;;;5052920;28;20439;-55
2021/07/12 08:59:55;;;;;;;1.87;1.77;;;35.60;50.20;;;;;;5058221;28;20470;-56
2021/07/12 09:02:22;;;;;;;1.87;1.77;;;35.70;50.00;;;;;;5054724;28;20223;-57
2021/07/12 09:04:51;;;;;;;1.90;1.80;;;36.30;49.10;;;;;;5052055;28;20462;-58
2021/07/12 09:07:28;;;;;;;1.77;1.67;;;35.70;48.80;;;;;;5060546;28;20535;-57
2021/07/12 09:10:01;;;;;;;2.20;2.10;;;36.10;48.70;;;;;;5057955;28;20525;-56
2021/07/12 09:12:43;;;;;;;1.97;1.60;;;35.60;49.00;;;;;;5055479;28;20811;-57
2021/07/12 09:15:12;;;;;;;2.30;2.10;;;36.20;48.60;;;;;;5060576;28;20445;-58
2021/07/12 09:17:41;;;;;;;2.90;1.73;;;36.60;47.50;;;;;;5056638;28;20625;-59
2021/07/12 09:20:09;;;;;;;1.93;1.73;;;37.10;47.20;;;;;;5056536;28;20456;-58
2021/07/12 09:22:38;;;;;;;2.53;1.70;;;37.40;46.70;;;;;;5056161;28;20459;-58
2021/07/12 09:25:09;;;;;;;1.80;1.70;;;37.40;45.70;;;;;;5062088;28;20496;-57
2021/07/12 09:27:37;;;;;;;2.33;1.73;;;37.50;45.10;;;;;;5063971;28;20462;-57
2021/07/12 09:30:13;;;;;;;2.77;2.57;;;37.00;45.90;;;;;;5061118;28;20459;-56
2021/07/12 09:32:42;;;;;;;6.33;3.30;;;36.90;46.60;;;;;;5066034;28;20610;-55
2021/07/12 09:35:17;;;;;;;1.60;1.50;;;36.70;46.90;;;;;;5067983;28;20451;-56
2021/07/12 09:37:47;;;;;;;1.80;1.70;;;36.70;46.60;;;;;;5059512;28;20989;-56
2021/07/12 09:40:18;;;;;;;1.63;1.53;;;36.00;48.00;;;;;;5061477;28;20478;-57
2021/07/12 09:42:49;;;;;;;2.17;1.70;;;36.90;46.20;;;;;;5057195;28;20467;-57
2021/07/12 09:45:18;;;;;;;2.63;2.43;;;37.10;46.50;;;;;;5064030;28;20436;-55
2021/07/12 09:47:45;;;;;;;1.87;1.43;;;37.80;46.20;;;;;;5059974;28;20431;-56
2021/07/12 09:50:15;;;;;;;1.70;1.60;;;38.50;44.10;;;;;;5062471;28;20627;-59
2021/07/12 09:52:50;;;;;;;1.70;1.50;;;38.40;43.40;;;;;;5060236;28;20439;-57
2021/07/12 09:55:25;;;;;;;1.73;1.63;;;38.20;43.80;;;;;;5061093;28;20572;-57
2021/07/12 09:58:07;;;;;;;1.73;1.63;;;37.50;44.20;;;;;;5062441;28;20442;-57
2021/07/12 10:00:33;;;;;;;1.70;1.60;;;37.30;45.10;;;;;;5063622;28;20559;-57
2021/07/12 10:02:59;;;;;;;2.03;1.70;;;37.60;43.80;;;;;;5059017;28;20546;-57
2021/07/12 10:05:25;;;;;;;2.10;1.90;;;37.30;44.40;;;;;;5063727;28;20481;-58
2021/07/12 10:07:51;;;;;;;3.00;2.53;;;36.90;45.20;;;;;;5063070;28;20818;-57
2021/07/12 10:10:16;;;;;;;1.80;1.70;;;36.00;46.20;;;;;;5056865;28;20303;-57
2021/07/12 10:12:44;;;;;;;1.77;1.67;;;36.10;45.90;;;;;;5057486;28;20192;-56
2021/07/12 10:15:11;;;;;;;2.13;1.67;;;36.20;46.20;;;;;;5064241;28;20651;-58
2021/07/12 10:17:40;;;;;;;1.67;1.57;;;35.70;47.00;;;;;;5061169;28;20812;-58
2021/07/12 10:20:06;;;;;;;2.00;1.80;;;35.80;46.10;;;;;;5059295;28;20567;-57
2021/07/12 10:22:34;;;;;;;2.07;1.97;;;35.60;47.20;;;;;;5052993;28;20471;-57
2021/07/12 10:25:14;;;;;;;1.67;1.57;;;35.10;47.50;;;;;;5058681;28;20440;-57
2021/07/12 10:27:54;;;;;;;2.07;1.97;;;34.80;46.90;;;;;;5064947;28;20960;-56
2021/07/12 10:30:37;;;;;;;2.10;2.00;;;34.10;48.30;;;;;;5064601;28;20899;-57
2021/07/12 10:33:05;;;;;;;3.33;1.93;;;33.30;50.90;;;;;;5050355;28;20435;-57
2021/07/12 10:35:39;;;;;;;2.10;1.90;;;32.90;51.80;;;;;;5058125;28;20490;-57
2021/07/12 10:38:07;;;;;;;1.90;1.80;;;32.40;53.30;;;;;;5059853;28;20517;-56
2021/07/12 10:40:58;;;;;;;2.30;2.10;;;32.10;52.90;;;;;;5056164;28;20462;-58
2021/07/12 10:43:42;;;;;;;1.80;1.70;;;32.00;53.50;;;;;;5059406;28;20459;-57
2021/07/12 10:46:08;;;;;;;1.93;1.83;;;31.40;53.70;;;;;;5054930;28;20438;-57
2021/07/12 10:48:36;;;;;;;2.30;2.10;;;30.80;55.20;;;;;;5062964;28;20711;-56
2021/07/12 10:51:17;;;;;;;2.23;1.90;;;30.60;55.90;;;;;;5069082;28;20450;-56
2021/07/12 10:54:04;;;;;;;1.83;1.60;;;30.40;56.00;;;;;;5060881;28;20436;-56
2021/07/12 10:56:48;;;;;;;1.60;1.50;;;30.20;56.80;;;;;;5065991;28;20541;-57
2021/07/12 10:59:29;;;;;;;2.53;2.03;;;30.10;56.30;;;;;;5058120;28;20472;-56
2021/07/12 11:01:56;;;;;;;2.27;1.60;;;29.90;56.40;;;;;;5059720;28;20507;-57
2021/07/12 11:04:53;;;;;;;2.40;2.20;;;29.80;57.40;;;;;;5057574;28;20447;-55
2021/07/12 11:07:40;;;;;;;2.60;2.17;;;29.60;57.80;;;;;;5061398;28;20520;-56
2021/07/12 11:10:19;;;;;;;2.07;1.97;;;29.20;58.60;;;;;;5057746;28;20532;-56
2021/07/12 11:12:56;;;;;;;1.90;1.80;;;28.80;59.10;;;;;;5061763;28;20890;-56
2021/07/12 11:15:22;;;;;;;1.70;1.60;;;28.90;59.40;;;;;;5065860;28;20515;-57
2021/07/12 11:18:01;;;;;;;1.90;1.80;;;29.00;59.20;;;;;;5060334;28;21095;-57
2021/07/12 11:20:44;;;;;;;1.83;1.73;;;29.10;59.20;;;;;;5063462;28;20207;-57
2021/07/12 11:23:47;;;;;;;1.63;1.53;;;29.50;58.50;;;;;;5061895;28;20463;-56
2021/07/12 11:26:24;;;;;;;2.20;1.83;;;30.30;57.10;;;;;;4969105;28;20435;-57
2021/07/12 11:28:55;;;;;;;2.00;1.70;;;30.70;56.30;;;;;;5049895;28;20525;-57
2021/07/12 11:31:45;;;;;;;2.40;1.93;;;31.20;54.60;;;;;;5062127;28;20493;-58
2021/07/12 11:34:24;;;;;;;2.60;2.10;;;31.60;54.20;;;;;;5056537;28;20482;-56
2021/07/12 11:37:00;;;;;;;2.83;2.00;;;31.80;53.20;;;;;;5070422;28;20803;-57
2021/07/12 11:39:29;;;;;;;3.50;2.50;;;31.80;52.90;;;;;;5064587;28;20549;-56
2021/07/12 11:41:56;;;;;;;3.50;2.07;;;31.50;53.00;;;;;;5057262;28;20454;-56
2021/07/12 11:44:22;;;;;;;2.00;1.87;;;31.20;53.60;;;;;;5062827;28;20467;-56
2021/07/12 11:46:50;;;;;;;2.10;2.00;;;30.80;54.90;;;;;;5061088;28;20532;-57
2021/07/12 11:49:24;;;;;;;2.00;1.90;;;31.00;55.50;;;;;;5060759;28;20966;-56
2021/07/12 11:51:55;;;;;;;2.13;2.03;;;30.60;55.00;;;;;;5054236;28;20451;-56
2021/07/12 11:54:26;;;;;;;2.13;1.93;;;30.60;55.20;;;;;;5061594;28;20541;-58
2021/07/12 11:56:57;;;;;;;2.10;1.90;;;30.30;56.10;;;;;;5057140;28;20522;-57
2021/07/12 11:59:37;;;;;;;1.90;1.80;;;30.20;55.80;;;;;;5057116;28;20978;-58
2021/07/12 12:02:09;;;;;;;2.00;1.70;;;30.00;56.60;;;;;;5058251;28;20444;-57
2021/07/12 12:04:58;;;;;;;1.83;1.73;;;29.70;57.60;;;;;;5051857;28;20542;-56
2021/07/12 12:07:29;;;;;;;2.23;2.13;;;29.60;57.80;;;;;;5057735;28;20803;-57
2021/07/12 12:09:58;;;;;;;2.40;2.20;;;29.70;58.60;;;;;;5057096;28;21102;-58
2021/07/12 12:12:29;;;;;;;1.87;1.77;;;29.70;58.50;;;;;;5067126;28;20435;-57
2021/07/12 12:15:00;;;;;;;2.13;1.93;;;29.90;57.10;;;;;;5064529;28;20507;-57
2021/07/12 12:17:27;;;;;;;1.83;1.73;;;29.80;57.10;;;;;;5058871;28;20824;-58
2021/07/12 12:20:22;;;;;;;2.30;1.97;;;29.80;57.20;;;;;;5054575;28;20463;-56
2021/07/12 12:23:17;;;;;;;1.60;1.50;;;29.90;56.40;;;;;;5046980;28;20451;-55
2021/07/12 12:26:10;;;;;;;2.00;1.90;;;29.70;57.80;;;;;;5057461;28;20510;-56
2021/07/12 12:28:40;;;;;;;2.13;1.93;;;29.70;57.30;;;;;;5055972;28;20453;-57
2021/07/12 12:31:34;;;;;;;2.10;1.90;;;29.70;57.90;;;;;;5058825;28;20447;-55
2021/07/12 12:34:10;;;;;;;1.90;1.80;;;29.60;57.50;;;;;;5053236;28;20605;-57
2021/07/12 12:36:42;;;;;;;1.70;1.60;;;29.40;58.40;;;;;;5058431;28;20531;-58
2021/07/12 12:39:13;;;;;;;1.70;1.60;;;29.30;57.80;;;;;;5053464;28;20469;-57
2021/07/12 12:42:01;;;;;;;2.00;1.90;;;29.40;58.50;;;;;;5054823;28;20437;-56
2021/07/12 12:44:40;;;;;;;2.00;1.80;;;29.40;58.40;;;;;;5064932;28;20541;-57
2021/07/12 12:47:06;;;;;;;2.10;2.00;;;29.30;58.80;;;;;;5053339;28;20471;-56
2021/07/12 12:49:37;;;;;;;1.67;1.57;;;29.30;60.10;;;;;;5055469;28;20484;-61
2021/07/12 12:52:08;;;;;;;2.17;1.97;;;29.40;59.40;;;;;;5056320;28;20186;-56
2021/07/12 12:54:36;;;;;;;2.10;1.90;;;29.10;59.40;;;;;;5056592;28;20440;-57
2021/07/12 12:57:04;;;;;;;2.60;1.93;;;28.90;60.30;;;;;;5053779;28;20432;-57
2021/07/12 12:59:36;;;;;;;1.97;1.87;;;29.10;58.80;;;;;;5060510;28;20471;-57
2021/07/12 13:02:05;;;;;;;2.93;2.63;;;29.00;59.90;;;;;;5061380;28;20439;-56
2021/07/12 13:04:55;;;;;;;1.90;1.80;;;28.80;60.90;;;;;;5059467;28;20446;-55
2021/07/12 13:07:27;;;;;;;4.33;2.30;;;28.70;61.70;;;;;;5056669;28;20484;-57